createdAt,value
2022-10-03T00:00:10.382Z,268.00
2022-10-03T00:01:10.361Z,268.00
2022-10-03T00:02:10.357Z,270.00
2022-10-03T00:03:10.453Z,266.00
2022-10-03T00:04:10.335Z,261.00
2022-10-03T00:05:10.344Z,263.00
2022-10-03T00:06:10.283Z,262.00
2022-10-03T00:07:10.583Z,264.00
2022-10-03T00:08:10.259Z,264.00
2022-10-03T00:09:10.269Z,260.00
2022-10-03T00:10:10.252Z,259.00
2022-10-03T00:11:10.232Z,259.00
2022-10-03T00:12:10.219Z,256.00
2022-10-03T00:13:10.220Z,255.00
2022-10-03T00:14:10.426Z,256.00
2022-10-03T00:15:10.245Z,260.00
2022-10-03T00:16:10.214Z,260.00
2022-10-03T00:17:10.154Z,259.00
2022-10-03T00:18:10.215Z,262.00
2022-10-03T00:19:10.122Z,258.00
2022-10-03T00:20:10.109Z,258.00
2022-10-03T00:21:10.151Z,264.00
2022-10-03T00:22:10.082Z,265.00
2022-10-03T00:23:10.074Z,263.00
2022-10-03T00:24:10.071Z,265.00
2022-10-03T00:25:10.064Z,269.00
2022-10-03T00:26:10.425Z,265.00
2022-10-03T00:27:10.096Z,262.00
2022-10-03T00:28:10.073Z,263.00
2022-10-03T00:29:10.081Z,263.00
2022-10-03T00:30:10.115Z,257.00
2022-10-03T00:31:10.100Z,260.00
2022-10-03T00:32:10.076Z,260.00
2022-10-03T00:33:10.062Z,259.00
2022-10-03T00:34:10.136Z,260.00
2022-10-03T00:35:10.121Z,264.00
2022-10-03T00:36:10.114Z,262.00
2022-10-03T00:37:10.027Z,262.00
2022-10-03T00:38:09.869Z,258.00
2022-10-03T00:39:09.867Z,260.00
2022-10-03T00:40:09.835Z,261.00
2022-10-03T00:41:09.830Z,257.00
2022-10-03T00:42:09.834Z,254.00
2022-10-03T00:43:09.834Z,255.00
2022-10-03T00:44:09.787Z,252.00
2022-10-03T00:45:09.810Z,252.00
2022-10-03T00:46:09.813Z,258.00
2022-10-03T00:47:09.775Z,257.00
2022-10-03T00:48:09.727Z,256.00
2022-10-03T00:49:09.743Z,257.00
2022-10-03T00:50:09.737Z,260.00
2022-10-03T00:51:09.702Z,268.00
2022-10-03T00:52:09.678Z,259.00
2022-10-03T00:53:09.685Z,254.00
2022-10-03T00:54:09.684Z,255.00
2022-10-03T00:55:09.650Z,259.00
2022-10-03T00:56:09.659Z,258.00
2022-10-03T00:57:09.628Z,258.00
2022-10-03T00:58:09.601Z,254.00
2022-10-03T00:59:09.616Z,254.00
2022-10-03T01:00:09.581Z,251.00
2022-10-03T01:01:09.646Z,257.00
2022-10-03T01:02:09.618Z,258.00
2022-10-03T01:03:09.561Z,254.00
2022-10-03T01:04:09.536Z,251.00
2022-10-03T01:05:09.511Z,255.00
2022-10-03T01:06:09.497Z,253.00
2022-10-03T01:07:09.533Z,255.00
2022-10-03T01:08:09.488Z,254.00
2022-10-03T01:09:09.464Z,255.00
2022-10-03T01:10:09.491Z,255.00
2022-10-03T01:11:09.452Z,260.00
2022-10-03T01:12:09.427Z,268.00
2022-10-03T01:13:09.436Z,274.00
2022-10-03T01:14:09.444Z,270.00
2022-10-03T01:15:09.381Z,274.00
2022-10-03T01:16:09.455Z,262.00
2022-10-03T01:17:09.390Z,263.00
2022-10-03T01:18:09.361Z,264.00
2022-10-03T01:19:09.354Z,257.00
2022-10-03T01:20:09.347Z,260.00
2022-10-03T01:21:09.320Z,267.00
2022-10-03T01:22:09.296Z,273.00
2022-10-03T01:23:09.295Z,275.00
2022-10-03T01:24:09.274Z,269.00
2022-10-03T01:25:09.253Z,280.00
2022-10-03T01:26:09.243Z,268.00
2022-10-03T01:27:09.251Z,262.00
2022-10-03T01:28:09.264Z,260.00
2022-10-03T01:29:09.215Z,264.00
2022-10-03T01:30:09.197Z,270.00
2022-10-03T01:31:09.239Z,272.00
2022-10-03T01:32:09.169Z,268.00
2022-10-03T01:33:09.149Z,262.00
2022-10-03T01:34:09.129Z,260.00
2022-10-03T01:35:09.151Z,263.00
2022-10-03T01:36:09.133Z,266.00
2022-10-03T01:37:09.093Z,268.00
2022-10-03T01:38:09.072Z,270.00
2022-10-03T01:39:09.068Z,268.00
2022-10-03T01:40:09.053Z,267.00
2022-10-03T01:41:09.060Z,265.00
2022-10-03T01:42:09.022Z,260.00
2022-10-03T01:43:09.061Z,258.00
2022-10-03T01:44:09.017Z,255.00
2022-10-03T01:45:08.992Z,256.00
2022-10-03T01:46:09.031Z,254.00
2022-10-03T01:47:08.960Z,255.00
2022-10-03T01:48:08.960Z,255.00
2022-10-03T01:49:08.952Z,255.00
2022-10-03T01:50:08.915Z,254.00
2022-10-03T01:51:08.911Z,252.00
2022-10-03T01:52:08.907Z,251.00
2022-10-03T01:53:08.913Z,255.00
2022-10-03T01:54:08.920Z,254.00
2022-10-03T01:55:08.857Z,259.00
2022-10-03T01:56:08.851Z,260.00
2022-10-03T01:57:08.854Z,263.00
2022-10-03T01:58:08.811Z,261.00
2022-10-03T01:59:08.802Z,265.00
2022-10-03T02:00:08.827Z,262.00
2022-10-03T02:01:08.848Z,258.00
2022-10-03T02:02:08.841Z,257.00
2022-10-03T02:03:08.785Z,252.00
2022-10-03T02:04:08.745Z,252.00
2022-10-03T02:05:08.767Z,250.00
2022-10-03T02:06:08.715Z,251.00
2022-10-03T02:07:08.714Z,256.00
2022-10-03T02:08:08.697Z,261.00
2022-10-03T02:09:08.693Z,261.00
2022-10-03T02:10:08.659Z,272.00
2022-10-03T02:11:08.645Z,266.00
2022-10-03T02:12:08.624Z,265.00
2022-10-03T02:13:08.616Z,266.00
2022-10-03T02:14:08.631Z,267.00
2022-10-03T02:15:08.621Z,268.00
2022-10-03T02:16:08.613Z,271.00
2022-10-03T02:17:08.569Z,259.00
2022-10-03T02:18:08.566Z,262.00
2022-10-03T02:19:08.544Z,272.00
2022-10-03T02:20:08.539Z,268.00
2022-10-03T02:21:08.546Z,266.00
2022-10-03T02:22:08.495Z,262.00
2022-10-03T02:23:08.510Z,263.00
2022-10-03T02:24:08.492Z,259.00
2022-10-03T02:25:08.479Z,256.00
2022-10-03T02:26:08.469Z,256.00
2022-10-03T02:27:08.466Z,254.00
2022-10-03T02:28:08.490Z,252.00
2022-10-03T02:29:08.424Z,255.00
2022-10-03T02:30:08.391Z,254.00
2022-10-03T02:31:08.463Z,253.00
2022-10-03T02:32:08.381Z,253.00
2022-10-03T02:33:08.406Z,253.00
2022-10-03T02:34:08.385Z,254.00
2022-10-03T02:35:08.346Z,256.00
2022-10-03T02:36:08.319Z,254.00
2022-10-03T02:37:08.313Z,259.00
2022-10-03T02:38:08.292Z,259.00
2022-10-03T02:39:08.310Z,258.00
2022-10-03T02:40:08.279Z,256.00
2022-10-03T02:41:08.277Z,252.00
2022-10-03T02:42:08.236Z,252.00
2022-10-03T02:43:08.227Z,255.00
2022-10-03T02:44:08.236Z,254.00
2022-10-03T02:45:08.230Z,252.00
2022-10-03T02:46:08.232Z,251.00
2022-10-03T02:47:08.170Z,249.00
2022-10-03T02:48:30.593Z,250.00
2022-10-03T02:49:08.179Z,250.00
2022-10-03T02:50:08.143Z,251.00
2022-10-03T02:51:08.162Z,255.00
2022-10-03T02:52:08.108Z,257.00
2022-10-03T02:53:08.097Z,243.00
2022-10-03T02:54:08.080Z,249.00
2022-10-03T02:55:08.078Z,247.00
2022-10-03T02:56:08.078Z,247.00
2022-10-03T02:57:08.068Z,250.00
2022-10-03T02:58:08.022Z,252.00
2022-10-03T02:59:08.006Z,252.00
2022-10-03T03:00:08.007Z,252.00
2022-10-03T03:01:08.070Z,253.00
2022-10-03T03:02:08.052Z,257.00
2022-10-03T03:03:07.972Z,256.00
2022-10-03T03:04:07.966Z,257.00
2022-10-03T03:05:07.931Z,248.00
2022-10-03T03:06:07.937Z,249.00
2022-10-03T03:07:07.905Z,250.00
2022-10-03T03:08:07.926Z,251.00
2022-10-03T03:09:07.875Z,253.00
2022-10-03T03:10:07.888Z,255.00
2022-10-03T03:11:07.877Z,254.00
2022-10-03T03:12:07.886Z,252.00
2022-10-03T03:13:07.859Z,255.00
2022-10-03T03:14:07.847Z,257.00
2022-10-03T03:15:07.815Z,256.00
2022-10-03T03:16:07.867Z,254.00
2022-10-03T03:17:07.785Z,254.00
2022-10-03T03:18:07.777Z,256.00
2022-10-03T03:19:07.769Z,256.00
2022-10-03T03:20:07.745Z,262.00
2022-10-03T03:21:07.717Z,256.00
2022-10-03T03:22:07.734Z,256.00
2022-10-03T03:23:07.708Z,265.00
2022-10-03T03:24:07.674Z,264.00
2022-10-03T03:25:09.838Z,263.00
2022-10-03T03:26:09.030Z,258.00
2022-10-03T03:27:07.669Z,258.00
2022-10-03T03:28:07.748Z,254.00
2022-10-03T03:29:07.626Z,255.00
2022-10-03T03:30:07.620Z,255.00
2022-10-03T03:31:07.643Z,254.00
2022-10-03T03:32:07.589Z,260.00
2022-10-03T03:33:07.585Z,258.00
2022-10-03T03:34:07.575Z,261.00
2022-10-03T03:35:07.546Z,265.00
2022-10-03T03:36:07.545Z,259.00
2022-10-03T03:37:07.538Z,259.00
2022-10-03T03:38:07.538Z,260.00
2022-10-03T03:39:07.489Z,258.00
2022-10-03T03:40:07.467Z,258.00
2022-10-03T03:41:07.475Z,255.00
2022-10-03T03:42:07.460Z,251.00
2022-10-03T03:43:07.431Z,251.00
2022-10-03T03:44:07.454Z,254.00
2022-10-03T03:45:07.419Z,259.00
2022-10-03T03:46:07.457Z,256.00
2022-10-03T03:47:07.404Z,263.00
2022-10-03T03:48:07.386Z,262.00
2022-10-03T03:49:07.390Z,249.00
2022-10-03T03:50:07.362Z,248.00
2022-10-03T03:51:07.320Z,244.00
2022-10-03T03:52:07.328Z,259.00
2022-10-03T03:53:07.314Z,259.00
2022-10-03T03:54:07.296Z,252.00
2022-10-03T03:55:07.293Z,241.00
2022-10-03T03:56:07.264Z,244.00
2022-10-03T03:57:07.251Z,251.00
2022-10-03T03:58:07.251Z,247.00
2022-10-03T03:59:07.218Z,257.00
2022-10-03T04:00:07.241Z,245.00
2022-10-03T04:01:07.273Z,249.00
2022-10-03T04:02:07.258Z,248.00
2022-10-03T04:03:07.161Z,248.00
2022-10-03T04:04:07.165Z,257.00
2022-10-03T04:05:07.156Z,264.00
2022-10-03T04:06:07.157Z,249.00
2022-10-03T04:07:07.113Z,260.00
2022-10-03T04:08:07.105Z,250.00
2022-10-03T04:09:07.105Z,256.00
2022-10-03T04:10:07.085Z,257.00
2022-10-03T04:11:07.116Z,243.00
2022-10-03T04:12:07.083Z,247.00
2022-10-03T04:13:07.031Z,250.00
2022-10-03T04:14:07.044Z,245.00
2022-10-03T04:15:07.025Z,247.00
2022-10-03T04:16:07.177Z,247.00
2022-10-03T04:17:06.999Z,261.00
2022-10-03T04:18:06.990Z,266.00
2022-10-03T04:19:06.971Z,264.00
2022-10-03T04:20:06.948Z,264.00
2022-10-03T04:21:06.952Z,255.00
2022-10-03T04:22:06.936Z,257.00
2022-10-03T04:23:06.912Z,253.00
2022-10-03T04:24:06.921Z,258.00
2022-10-03T04:25:06.876Z,254.00
2022-10-03T04:26:06.911Z,242.00
2022-10-03T04:27:06.848Z,252.00
2022-10-03T04:28:06.899Z,259.00
2022-10-03T04:29:06.834Z,253.00
2022-10-03T04:30:06.813Z,263.00
2022-10-03T04:31:06.799Z,262.00
2022-10-03T04:32:06.850Z,267.00
2022-10-03T04:33:06.797Z,265.00
2022-10-03T04:34:06.773Z,257.00
2022-10-03T04:35:06.756Z,262.00
2022-10-03T04:36:06.761Z,250.00
2022-10-03T04:37:06.741Z,266.00
2022-10-03T04:38:06.740Z,259.00
2022-10-03T04:39:06.707Z,256.00
2022-10-03T04:40:06.704Z,255.00
2022-10-03T04:41:06.682Z,252.00
2022-10-03T04:42:06.651Z,254.00
2022-10-03T04:43:06.645Z,266.00
2022-10-03T04:44:06.650Z,255.00
2022-10-03T04:45:06.621Z,256.00
2022-10-03T04:46:06.666Z,257.00
2022-10-03T04:47:06.576Z,266.00
2022-10-03T04:48:06.598Z,260.00
2022-10-03T04:49:06.588Z,261.00
2022-10-03T04:50:06.583Z,255.00
2022-10-03T04:51:06.543Z,256.00
2022-10-03T04:52:06.519Z,258.00
2022-10-03T04:53:06.524Z,259.00
2022-10-03T04:54:06.512Z,256.00
2022-10-03T04:55:06.487Z,265.00
2022-10-03T04:56:06.487Z,265.00
2022-10-03T04:57:06.451Z,264.00
2022-10-03T04:58:06.463Z,263.00
2022-10-03T04:59:06.441Z,260.00
2022-10-03T05:00:06.419Z,262.00
2022-10-03T05:01:06.472Z,262.00
2022-10-03T05:02:06.406Z,256.00
2022-10-03T05:03:06.389Z,259.00
2022-10-03T05:04:06.359Z,256.00
2022-10-03T05:05:06.342Z,254.00
2022-10-03T05:06:06.355Z,261.00
2022-10-03T05:07:06.335Z,255.00
2022-10-03T05:08:06.332Z,255.00
2022-10-03T05:09:06.311Z,253.00
2022-10-03T05:10:10.286Z,259.00
2022-10-03T05:11:06.317Z,258.00
2022-10-03T05:12:06.264Z,258.00
2022-10-03T05:13:06.238Z,256.00
2022-10-03T05:14:06.257Z,256.00
2022-10-03T05:15:06.238Z,261.00
2022-10-03T05:16:06.279Z,258.00
2022-10-03T05:17:06.202Z,256.00
2022-10-03T05:18:06.202Z,257.00
2022-10-03T05:19:06.157Z,254.00
2022-10-03T05:20:06.159Z,258.00
2022-10-03T05:21:06.137Z,263.00
2022-10-03T05:22:06.167Z,266.00
2022-10-03T05:23:06.118Z,266.00
2022-10-03T05:24:06.113Z,260.00
2022-10-03T05:25:06.104Z,260.00
2022-10-03T05:26:30.905Z,268.00
2022-10-03T05:27:06.106Z,265.00
2022-10-03T05:28:06.087Z,265.00
2022-10-03T05:29:06.092Z,267.00
2022-10-03T05:30:06.088Z,264.00
2022-10-03T05:31:06.015Z,254.00
2022-10-03T05:32:06.100Z,265.00
2022-10-03T05:33:08.714Z,264.00
2022-10-03T05:34:05.988Z,258.00
2022-10-03T05:35:05.951Z,265.00
2022-10-03T05:36:05.960Z,264.00
2022-10-03T05:37:05.939Z,268.00
2022-10-03T05:38:05.959Z,262.00
2022-10-03T05:39:05.925Z,265.00
2022-10-03T05:40:05.907Z,263.00
2022-10-03T05:41:05.885Z,263.00
2022-10-03T05:42:22.234Z,260.00
2022-10-03T05:43:05.881Z,262.00
2022-10-03T05:44:05.849Z,262.00
2022-10-03T05:45:05.834Z,265.00
2022-10-03T05:46:05.903Z,259.00
2022-10-03T05:47:05.807Z,253.00
2022-10-03T05:48:05.808Z,261.00
2022-10-03T05:49:05.796Z,250.00
2022-10-03T05:50:11.026Z,258.00
2022-10-03T05:51:05.745Z,258.00
2022-10-03T05:52:05.759Z,255.00
2022-10-03T05:53:05.733Z,258.00
2022-10-03T05:54:05.764Z,248.00
2022-10-03T05:55:05.720Z,308.00
2022-10-03T05:56:05.676Z,285.00
2022-10-03T05:57:05.673Z,266.00
2022-10-03T05:58:05.668Z,262.00
2022-10-03T05:59:05.650Z,274.00
2022-10-03T06:00:05.639Z,263.00
2022-10-03T06:01:05.645Z,276.00
2022-10-03T06:02:05.646Z,278.00
2022-10-03T06:03:05.786Z,295.00
2022-10-03T06:04:06.409Z,305.00
2022-10-03T06:05:05.552Z,285.00
2022-10-03T06:06:05.567Z,293.00
2022-10-03T06:07:05.548Z,289.00
2022-10-03T06:08:05.545Z,297.00
2022-10-03T06:09:05.498Z,316.00
2022-10-03T06:10:05.508Z,266.00
2022-10-03T06:11:05.509Z,277.00
2022-10-03T06:12:05.477Z,284.00
2022-10-03T06:13:05.459Z,296.00
2022-10-03T06:14:05.455Z,292.00
2022-10-03T06:15:05.437Z,266.00
2022-10-03T06:16:05.466Z,264.00
2022-10-03T06:17:05.413Z,275.00
2022-10-03T06:18:05.400Z,282.00
2022-10-03T06:19:05.382Z,265.00
2022-10-03T06:20:05.360Z,260.00
2022-10-03T06:21:05.367Z,298.00
2022-10-03T06:22:05.367Z,294.00
2022-10-03T06:23:06.271Z,300.00
2022-10-03T06:24:05.323Z,304.00
2022-10-03T06:25:05.295Z,284.00
2022-10-03T06:26:05.299Z,272.00
2022-10-03T06:27:05.290Z,254.00
2022-10-03T06:28:05.322Z,257.00
2022-10-03T06:29:05.253Z,224.00
2022-10-03T06:30:05.262Z,278.00
2022-10-03T06:31:05.271Z,287.00
2022-10-03T06:32:05.203Z,313.00
2022-10-03T06:33:05.186Z,283.00
2022-10-03T06:34:05.450Z,293.00
2022-10-03T06:35:05.190Z,328.00
2022-10-03T06:36:05.166Z,301.00
2022-10-03T06:37:05.142Z,293.00
2022-10-03T06:38:05.145Z,297.00
2022-10-03T06:39:05.117Z,299.00
2022-10-03T06:40:09.571Z,308.00
2022-10-03T06:41:05.147Z,277.00
2022-10-03T06:42:05.070Z,276.00
2022-10-03T06:43:05.059Z,281.00
2022-10-03T06:44:05.057Z,280.00
2022-10-03T06:45:05.029Z,276.00
2022-10-03T06:46:05.078Z,271.00
2022-10-03T06:47:05.005Z,266.00
2022-10-03T06:48:04.984Z,269.00
2022-10-03T06:49:04.984Z,266.00
2022-10-03T06:50:04.956Z,262.00
2022-10-03T06:51:04.967Z,257.00
2022-10-03T06:52:04.948Z,249.00
2022-10-03T06:53:04.924Z,251.00
2022-10-03T06:54:04.906Z,252.00
2022-10-03T06:55:04.901Z,252.00
2022-10-03T06:56:04.896Z,251.00
2022-10-03T06:57:04.897Z,250.00
2022-10-03T06:58:04.852Z,244.00
2022-10-03T06:59:04.833Z,245.00
2022-10-03T07:00:04.841Z,248.00
2022-10-03T07:01:04.882Z,250.00
2022-10-03T07:02:04.947Z,246.00
2022-10-03T07:03:04.797Z,239.00
2022-10-03T07:04:04.784Z,234.00
2022-10-03T07:05:04.757Z,230.00
2022-10-03T07:06:04.784Z,230.00
2022-10-03T07:07:04.799Z,233.00
2022-10-03T07:08:04.717Z,229.00
2022-10-03T07:09:04.729Z,230.00
2022-10-03T07:10:04.723Z,230.00
2022-10-03T07:11:04.702Z,224.00
2022-10-03T07:12:04.665Z,221.00
2022-10-03T07:13:04.684Z,215.00
2022-10-03T07:14:04.644Z,211.00
2022-10-03T07:15:04.642Z,215.00
2022-10-03T07:16:25.438Z,212.00
2022-10-03T07:17:04.696Z,212.00
2022-10-03T07:18:04.585Z,214.00
2022-10-03T07:19:04.579Z,213.00
2022-10-03T07:20:04.582Z,210.00
2022-10-03T07:21:04.557Z,208.00
2022-10-03T07:22:04.527Z,205.00
2022-10-03T07:23:04.539Z,213.00
2022-10-03T07:24:04.501Z,214.00
2022-10-03T07:25:04.497Z,215.00
2022-10-03T07:26:04.505Z,219.00
2022-10-03T07:27:04.470Z,221.00
2022-10-03T07:28:04.509Z,221.00
2022-10-03T07:29:04.464Z,219.00
2022-10-03T07:30:04.435Z,230.00
2022-10-03T07:31:04.440Z,236.00
2022-10-03T07:32:04.435Z,242.00
2022-10-03T07:33:04.417Z,261.00
2022-10-03T07:34:04.371Z,265.00
2022-10-03T07:35:04.382Z,257.00
2022-10-03T07:36:04.343Z,264.00
2022-10-03T07:37:04.354Z,266.00
2022-10-03T07:38:04.328Z,268.00
2022-10-03T07:39:04.325Z,257.00
2022-10-03T07:40:04.323Z,251.00
2022-10-03T07:41:04.290Z,244.00
2022-10-03T07:42:04.289Z,239.00
2022-10-03T07:43:04.281Z,241.00
2022-10-03T07:44:04.263Z,261.00
2022-10-03T07:45:04.235Z,273.00
2022-10-03T07:46:04.318Z,269.00
2022-10-03T07:47:04.215Z,272.00
2022-10-03T07:48:04.225Z,275.00
2022-10-03T07:49:04.791Z,274.00
2022-10-03T07:50:04.345Z,271.00
2022-10-03T07:51:04.492Z,285.00
2022-10-03T07:52:04.257Z,278.00
2022-10-03T07:53:04.151Z,276.00
2022-10-03T07:54:04.499Z,298.00
2022-10-03T07:55:04.162Z,198.00
2022-10-03T07:56:08.716Z,274.00
2022-10-03T07:57:05.246Z,279.00
2022-10-03T07:58:04.079Z,292.00
2022-10-03T07:59:04.079Z,287.00
2022-10-03T08:00:04.130Z,272.00
2022-10-03T08:01:04.082Z,287.00
2022-10-03T08:02:04.020Z,283.00
2022-10-03T08:03:04.091Z,282.00
2022-10-03T08:04:04.039Z,276.00
2022-10-03T08:05:04.149Z,275.00
2022-10-03T08:06:04.002Z,282.00
2022-10-03T08:07:03.972Z,291.00
2022-10-03T08:08:03.997Z,291.00
2022-10-03T08:09:03.950Z,290.00
2022-10-03T08:10:03.973Z,283.00
2022-10-03T08:11:03.930Z,287.00
2022-10-03T08:12:03.970Z,281.00
2022-10-03T08:13:04.920Z,282.00
2022-10-03T08:14:04.365Z,272.00
2022-10-03T08:15:04.113Z,285.00
2022-10-03T08:16:04.259Z,284.00
2022-10-03T08:17:04.192Z,291.00
2022-10-03T08:18:04.110Z,275.00
2022-10-03T08:19:08.426Z,272.00
2022-10-03T08:20:03.812Z,296.00
2022-10-03T08:21:03.974Z,283.00
2022-10-03T08:22:04.049Z,282.00
2022-10-03T08:23:04.146Z,272.00
2022-10-03T08:24:03.740Z,277.00
2022-10-03T08:25:04.114Z,272.00
2022-10-03T08:26:03.707Z,272.00
2022-10-03T08:27:04.121Z,276.00
2022-10-03T08:28:03.868Z,277.00
2022-10-03T08:29:03.794Z,268.00
2022-10-03T08:30:03.666Z,267.00
2022-10-03T08:31:03.708Z,272.00
2022-10-03T08:32:03.696Z,269.00
2022-10-03T08:33:03.849Z,277.00
2022-10-03T08:34:03.636Z,280.00
2022-10-03T08:35:03.734Z,273.00
2022-10-03T08:36:03.586Z,278.00
2022-10-03T08:37:03.592Z,279.00
2022-10-03T08:38:03.567Z,284.00
2022-10-03T08:39:03.543Z,280.00
2022-10-03T08:40:03.563Z,281.00
2022-10-03T08:41:03.522Z,282.00
2022-10-03T08:42:03.520Z,283.00
2022-10-03T08:43:03.512Z,286.00
2022-10-03T08:44:03.568Z,286.00
2022-10-03T08:45:03.481Z,280.00
2022-10-03T08:46:03.531Z,282.00
2022-10-03T08:47:03.447Z,281.00
2022-10-03T08:48:03.464Z,282.00
2022-10-03T08:49:03.435Z,282.00
2022-10-03T08:50:05.715Z,281.00
2022-10-03T08:51:03.498Z,282.00
2022-10-03T08:52:03.383Z,283.00
2022-10-03T08:53:03.558Z,284.00
2022-10-03T08:54:03.414Z,284.00
2022-10-03T08:55:03.383Z,284.00
2022-10-03T08:56:03.372Z,281.00
2022-10-03T08:57:03.314Z,279.00
2022-10-03T08:58:03.349Z,276.00
2022-10-03T08:59:03.301Z,275.00
2022-10-03T09:00:03.371Z,276.00
2022-10-03T09:01:03.700Z,277.00
2022-10-03T09:02:03.324Z,280.00
2022-10-03T09:03:31.902Z,280.00
2022-10-03T09:04:03.211Z,281.00
2022-10-03T09:05:03.195Z,284.00
2022-10-03T09:06:03.169Z,284.00
2022-10-03T09:07:17.009Z,286.00
2022-10-03T09:08:03.207Z,287.00
2022-10-03T09:09:03.632Z,287.00
2022-10-03T09:10:03.268Z,289.00
2022-10-03T09:11:03.123Z,288.00
2022-10-03T09:12:03.142Z,289.00
2022-10-03T09:13:03.080Z,289.00
2022-10-03T09:14:03.077Z,291.00
2022-10-03T09:15:03.054Z,292.00
2022-10-03T09:16:03.089Z,291.00
2022-10-03T09:17:03.034Z,290.00
2022-10-03T09:18:03.045Z,292.00
2022-10-03T09:19:03.053Z,293.00
2022-10-03T09:20:03.007Z,292.00
2022-10-03T09:21:02.992Z,296.00
2022-10-03T09:22:02.955Z,295.00
2022-10-03T09:23:02.993Z,297.00
2022-10-03T09:24:02.947Z,297.00
2022-10-03T09:25:02.935Z,296.00
2022-10-03T09:26:02.931Z,296.00
2022-10-03T09:27:02.892Z,295.00
2022-10-03T09:28:02.908Z,294.00
2022-10-03T09:29:02.884Z,294.00
2022-10-03T09:30:02.891Z,297.00
2022-10-03T09:31:02.933Z,294.00
2022-10-03T09:32:02.827Z,293.00
2022-10-03T09:33:02.815Z,295.00
2022-10-03T09:34:02.812Z,294.00
2022-10-03T09:35:06.982Z,293.00
2022-10-03T09:36:02.791Z,291.00
2022-10-03T09:37:02.790Z,289.00
2022-10-03T09:38:02.784Z,290.00
2022-10-03T09:39:02.788Z,292.00
2022-10-03T09:40:02.741Z,290.00
2022-10-03T09:41:02.752Z,290.00
2022-10-03T09:42:03.012Z,287.00
2022-10-03T09:43:02.713Z,287.00
2022-10-03T09:44:02.684Z,289.00
2022-10-03T09:45:02.676Z,290.00
2022-10-03T09:46:02.636Z,287.00
2022-10-03T09:47:02.664Z,291.00
2022-10-03T09:48:02.633Z,289.00
2022-10-03T09:49:02.638Z,288.00
2022-10-03T09:50:02.599Z,287.00
2022-10-03T09:51:02.613Z,286.00
2022-10-03T09:52:06.761Z,284.00
2022-10-03T09:53:02.632Z,286.00
2022-10-03T09:54:02.558Z,288.00
2022-10-03T09:55:02.554Z,287.00
2022-10-03T09:56:02.529Z,288.00
2022-10-03T09:57:02.518Z,290.00
2022-10-03T09:58:02.505Z,291.00
2022-10-03T09:59:02.505Z,294.00
2022-10-03T10:00:02.451Z,294.00
2022-10-03T10:01:02.632Z,298.00
2022-10-03T10:02:02.434Z,292.00
2022-10-03T10:03:02.419Z,294.00
2022-10-03T10:04:02.457Z,298.00
2022-10-03T10:05:02.439Z,298.00
2022-10-03T10:06:02.377Z,296.00
2022-10-03T10:07:02.405Z,300.00
2022-10-03T10:08:02.358Z,300.00
2022-10-03T10:09:02.359Z,300.00
2022-10-03T10:10:02.337Z,301.00
2022-10-03T10:11:02.411Z,301.00
2022-10-03T10:12:02.317Z,300.00
2022-10-03T10:13:02.312Z,299.00
2022-10-03T10:14:07.676Z,298.00
2022-10-03T10:15:02.289Z,299.00
2022-10-03T10:16:02.378Z,300.00
2022-10-03T10:17:02.249Z,302.00
2022-10-03T10:18:02.233Z,301.00
2022-10-03T10:19:02.222Z,302.00
2022-10-03T10:20:02.406Z,302.00
2022-10-03T10:21:02.601Z,302.00
2022-10-03T10:22:02.285Z,300.00
2022-10-03T10:23:02.375Z,299.00
2022-10-03T10:24:02.155Z,296.00
2022-10-03T10:25:02.153Z,296.00
2022-10-03T10:26:02.163Z,297.00
2022-10-03T10:27:02.298Z,297.00
2022-10-03T10:28:02.281Z,297.00
2022-10-03T10:29:02.184Z,299.00
2022-10-03T10:30:02.117Z,296.00
2022-10-03T10:31:02.221Z,294.00
2022-10-03T10:32:02.237Z,294.00
2022-10-03T10:33:02.106Z,295.00
2022-10-03T10:34:02.181Z,295.00
2022-10-03T10:35:02.087Z,295.00
2022-10-03T10:36:02.050Z,294.00
2022-10-03T10:37:02.971Z,293.00
2022-10-03T10:38:02.037Z,296.00
2022-10-03T10:39:01.967Z,299.00
2022-10-03T10:40:02.006Z,296.00
2022-10-03T10:41:03.734Z,293.00
2022-10-03T10:42:01.923Z,290.00
2022-10-03T10:43:01.986Z,290.00
2022-10-03T10:44:01.907Z,293.00
2022-10-03T10:45:01.896Z,293.00
2022-10-03T10:46:01.851Z,300.00
2022-10-03T10:47:02.140Z,301.00
2022-10-03T10:48:01.879Z,300.00
2022-10-03T10:49:04.022Z,302.00
2022-10-03T10:50:02.136Z,302.00
2022-10-03T10:51:02.039Z,303.00
2022-10-03T10:52:02.034Z,304.00
2022-10-03T10:53:01.895Z,306.00
2022-10-03T10:54:01.874Z,311.00
2022-10-03T10:55:01.914Z,309.00
2022-10-03T10:56:01.871Z,306.00
2022-10-03T10:57:01.921Z,296.00
2022-10-03T10:58:01.834Z,297.00
2022-10-03T10:59:01.864Z,301.00
2022-10-03T11:00:01.797Z,302.00
2022-10-03T11:01:01.855Z,299.00
2022-10-03T11:02:01.757Z,301.00
2022-10-03T11:03:01.766Z,317.00
2022-10-03T11:04:01.729Z,314.00
2022-10-03T11:05:01.793Z,305.00
2022-10-03T11:06:01.739Z,310.00
2022-10-03T11:07:01.750Z,300.00
2022-10-03T11:08:01.640Z,304.00
2022-10-03T11:09:01.697Z,310.00
2022-10-03T11:10:01.668Z,310.00
2022-10-03T11:11:01.616Z,313.00
2022-10-03T11:12:01.632Z,316.00
2022-10-03T11:13:01.635Z,320.00
2022-10-03T11:14:01.589Z,315.00
2022-10-03T11:15:01.539Z,315.00
2022-10-03T11:16:01.676Z,317.00
2022-10-03T11:17:01.567Z,319.00
2022-10-03T11:18:01.571Z,317.00
2022-10-03T11:19:01.730Z,315.00
2022-10-03T11:20:01.630Z,313.00
2022-10-03T11:21:01.486Z,312.00
2022-10-03T11:22:01.497Z,311.00
2022-10-03T11:23:04.746Z,307.00
2022-10-03T11:24:01.509Z,304.00
2022-10-03T11:25:01.470Z,302.00
2022-10-03T11:26:01.483Z,300.00
2022-10-03T11:27:01.437Z,299.00
2022-10-03T11:28:01.479Z,301.00
2022-10-03T11:29:01.398Z,299.00
2022-10-03T11:30:01.406Z,298.00
2022-10-03T11:31:01.538Z,297.00
2022-10-03T11:32:01.471Z,297.00
2022-10-03T11:33:01.548Z,297.00
2022-10-03T11:34:01.418Z,298.00
2022-10-03T11:35:01.375Z,291.00
2022-10-03T11:36:01.330Z,293.00
2022-10-03T11:37:01.339Z,298.00
2022-10-03T11:38:01.345Z,299.00
2022-10-03T11:39:01.199Z,300.00
2022-10-03T11:40:01.258Z,299.00
2022-10-03T11:41:01.212Z,298.00
2022-10-03T11:42:01.135Z,298.00
2022-10-03T11:43:01.291Z,298.00
2022-10-03T11:44:02.107Z,302.00
2022-10-03T11:45:01.135Z,301.00
2022-10-03T11:46:01.381Z,299.00
2022-10-03T11:47:01.063Z,299.00
2022-10-03T11:48:01.067Z,295.00
2022-10-03T11:49:01.049Z,293.00
2022-10-03T11:50:01.071Z,291.00
2022-10-03T11:51:00.994Z,293.00
2022-10-03T11:52:00.986Z,292.00
2022-10-03T11:53:00.973Z,284.00
2022-10-03T11:54:26.318Z,282.00
2022-10-03T11:55:00.969Z,292.00
2022-10-03T11:56:00.974Z,297.00
2022-10-03T11:57:00.972Z,300.00
2022-10-03T11:58:00.961Z,299.00
2022-10-03T11:59:01.338Z,297.00
2022-10-03T12:00:01.099Z,299.00
2022-10-03T12:01:01.148Z,298.00
2022-10-03T12:02:01.021Z,296.00
2022-10-03T12:03:01.595Z,293.00
2022-10-03T12:04:00.879Z,292.00
2022-10-03T12:05:00.934Z,291.00
2022-10-03T12:06:00.837Z,291.00
2022-10-03T12:07:00.783Z,290.00
2022-10-03T12:08:02.063Z,291.00
2022-10-03T12:09:00.899Z,294.00
2022-10-03T12:10:01.439Z,293.00
2022-10-03T12:11:00.740Z,292.00
2022-10-03T12:12:00.729Z,291.00
2022-10-03T12:13:00.714Z,291.00
2022-10-03T12:14:00.726Z,291.00
2022-10-03T12:15:00.679Z,291.00
2022-10-03T12:16:00.673Z,293.00
2022-10-03T12:17:00.651Z,290.00
2022-10-03T12:18:00.651Z,294.00
2022-10-03T12:19:00.647Z,292.00
2022-10-03T12:20:00.643Z,294.00
2022-10-03T12:21:00.633Z,295.00
2022-10-03T12:22:00.615Z,292.00
2022-10-03T12:23:00.631Z,296.00
2022-10-03T12:24:00.579Z,295.00
2022-10-03T12:25:00.565Z,293.00
2022-10-03T12:26:00.562Z,292.00
2022-10-03T12:27:00.521Z,290.00
2022-10-03T12:28:00.562Z,287.00